sensor_id;sensor_type;location;lat;lon;timestamp;P1;durP1;ratioP1;P2;durP2;ratioP2
5774;SDS011;2913;51.120;6.772;2023-04-19T00:00:55;991.42;;;286.40;;
5774;SDS011;2913;51.120;6.772;2023-04-19T00:03:25;979.72;;;284.98;;
5774;SDS011;2913;51.120;6.772;2023-04-19T00:05:54;814.65;;;237.10;;
5774;SDS011;2913;51.120;6.772;2023-04-19T00:08:25;782.65;;;230.23;;
5774;SDS011;2913;51.120;6.772;2023-04-19T00:10:50;637.47;;;186.30;;
5774;SDS011;2913;51.120;6.772;2023-04-19T00:13:19;726.10;;;215.73;;
5774;SDS011;2913;51.120;6.772;2023-04-19T00:15:45;776.80;;;227.50;;
5774;SDS011;2913;51.120;6.772;2023-04-19T00:18:11;1344.03;;;386.63;;
5774;SDS011;2913;51.120;6.772;2023-04-19T00:20:39;1324.03;;;380.00;;
5774;SDS011;2913;51.120;6.772;2023-04-19T00:23:07;1263.10;;;364.05;;
5774;SDS011;2913;51.120;6.772;2023-04-19T00:25:33;1283.45;;;366.25;;
5774;SDS011;2913;51.120;6.772;2023-04-19T00:28:00;1324.70;;;378.70;;
5774;SDS011;2913;51.120;6.772;2023-04-19T00:30:29;1289.75;;;374.17;;
5774;SDS011;2913;51.120;6.772;2023-04-19T00:32:54;1279.72;;;366.67;;
5774;SDS011;2913;51.120;6.772;2023-04-19T00:35:20;1308.82;;;378.30;;
5774;SDS011;2913;51.120;6.772;2023-04-19T00:37:48;1360.10;;;394.85;;
5774;SDS011;2913;51.120;6.772;2023-04-19T00:40:13;1323.05;;;382.23;;
5774;SDS011;2913;51.120;6.772;2023-04-19T00:42:39;1273.47;;;370.33;;
5774;SDS011;2913;51.120;6.772;2023-04-19T00:45:05;1179.25;;;342.40;;
5774;SDS011;2913;51.120;6.772;2023-04-19T00:47:31;1176.57;;;338.52;;
5774;SDS011;2913;51.120;6.772;2023-04-19T00:50:00;1199.60;;;346.35;;
5774;SDS011;2913;51.120;6.772;2023-04-19T00:52:31;1243.97;;;355.10;;
5774;SDS011;2913;51.120;6.772;2023-04-19T00:54:59;1195.80;;;345.48;;
5774;SDS011;2913;51.120;6.772;2023-04-19T00:57:26;1113.00;;;324.20;;
5774;SDS011;2913;51.120;6.772;2023-04-19T00:59:55;1133.85;;;327.60;;
5774;SDS011;2913;51.120;6.772;2023-04-19T01:02:22;1082.75;;;317.40;;
5774;SDS011;2913;51.120;6.772;2023-04-19T01:04:49;1119.72;;;325.40;;
5774;SDS011;2913;51.120;6.772;2023-04-19T01:07:18;703.00;;;207.02;;
5774;SDS011;2913;51.120;6.772;2023-04-19T01:09:43;831.10;;;244.70;;
5774;SDS011;2913;51.120;6.772;2023-04-19T01:12:09;1064.30;;;320.55;;
5774;SDS011;2913;51.120;6.772;2023-04-19T01:14:35;793.45;;;233.75;;
5774;SDS011;2913;51.120;6.772;2023-04-19T01:17:03;756.90;;;220.05;;
5774;SDS011;2913;51.120;6.772;2023-04-19T01:19:32;842.60;;;245.32;;
5774;SDS011;2913;51.120;6.772;2023-04-19T01:21:59;695.53;;;206.30;;
5774;SDS011;2913;51.120;6.772;2023-04-19T01:24:27;749.63;;;219.23;;
5774;SDS011;2913;51.120;6.772;2023-04-19T01:26:57;773.92;;;229.95;;
5774;SDS011;2913;51.120;6.772;2023-04-19T01:29:26;750.55;;;220.35;;
5774;SDS011;2913;51.120;6.772;2023-04-19T01:31:52;825.13;;;244.30;;
5774;SDS011;2913;51.120;6.772;2023-04-19T01:34:20;868.53;;;253.77;;
5774;SDS011;2913;51.120;6.772;2023-04-19T01:36:52;823.83;;;242.30;;
5774;SDS011;2913;51.120;6.772;2023-04-19T01:39:19;726.65;;;211.85;;
5774;SDS011;2913;51.120;6.772;2023-04-19T01:41:45;702.50;;;206.77;;
5774;SDS011;2913;51.120;6.772;2023-04-19T01:44:11;720.28;;;212.07;;
5774;SDS011;2913;51.120;6.772;2023-04-19T01:46:36;823.20;;;240.50;;
5774;SDS011;2913;51.120;6.772;2023-04-19T01:49:06;1007.58;;;295.98;;
5774;SDS011;2913;51.120;6.772;2023-04-19T01:51:32;764.70;;;226.02;;
5774;SDS011;2913;51.120;6.772;2023-04-19T01:53:58;751.45;;;221.27;;
5774;SDS011;2913;51.120;6.772;2023-04-19T01:56:24;767.95;;;225.70;;
5774;SDS011;2913;51.120;6.772;2023-04-19T01:58:50;893.50;;;259.52;;
5774;SDS011;2913;51.120;6.772;2023-04-19T02:01:15;970.55;;;284.73;;
5774;SDS011;2913;51.120;6.772;2023-04-19T02:03:41;989.95;;;291.10;;
5774;SDS011;2913;51.120;6.772;2023-04-19T02:06:14;977.53;;;285.38;;
5774;SDS011;2913;51.120;6.772;2023-04-19T02:08:42;872.78;;;256.83;;
5774;SDS011;2913;51.120;6.772;2023-04-19T02:11:12;896.88;;;267.05;;
5774;SDS011;2913;51.120;6.772;2023-04-19T02:13:40;689.75;;;204.65;;
5774;SDS011;2913;51.120;6.772;2023-04-19T02:16:11;653.40;;;197.02;;
5774;SDS011;2913;51.120;6.772;2023-04-19T02:18:37;624.13;;;185.73;;
5774;SDS011;2913;51.120;6.772;2023-04-19T02:21:08;651.63;;;193.63;;
5774;SDS011;2913;51.120;6.772;2023-04-19T02:23:37;554.03;;;160.70;;
5774;SDS011;2913;51.120;6.772;2023-04-19T02:26:02;468.63;;;136.85;;
5774;SDS011;2913;51.120;6.772;2023-04-19T02:28:33;408.38;;;127.40;;
5774;SDS011;2913;51.120;6.772;2023-04-19T02:31:02;277.73;;;102.60;;
5774;SDS011;2913;51.120;6.772;2023-04-19T02:33:29;302.77;;;107.30;;
5774;SDS011;2913;51.120;6.772;2023-04-19T02:35:57;367.77;;;122.18;;
5774;SDS011;2913;51.120;6.772;2023-04-19T02:38:25;465.27;;;140.60;;
5774;SDS011;2913;51.120;6.772;2023-04-19T02:40:51;429.15;;;128.55;;
5774;SDS011;2913;51.120;6.772;2023-04-19T02:43:22;330.98;;;112.88;;
5774;SDS011;2913;51.120;6.772;2023-04-19T02:45:47;412.20;;;127.80;;
5774;SDS011;2913;51.120;6.772;2023-04-19T02:48:15;384.25;;;125.38;;
5774;SDS011;2913;51.120;6.772;2023-04-19T02:50:40;354.95;;;120.43;;
5774;SDS011;2913;51.120;6.772;2023-04-19T02:53:08;360.88;;;119.72;;
5774;SDS011;2913;51.120;6.772;2023-04-19T02:55:36;318.00;;;112.20;;
5774;SDS011;2913;51.120;6.772;2023-04-19T02:58:01;249.88;;;97.93;;
5774;SDS011;2913;51.120;6.772;2023-04-19T03:00:27;380.10;;;121.43;;
5774;SDS011;2913;51.120;6.772;2023-04-19T03:02:55;516.78;;;155.93;;
5774;SDS011;2913;51.120;6.772;2023-04-19T03:05:21;483.60;;;145.55;;
5774;SDS011;2913;51.120;6.772;2023-04-19T03:07:47;410.63;;;132.52;;
5774;SDS011;2913;51.120;6.772;2023-04-19T03:10:13;362.50;;;119.65;;
5774;SDS011;2913;51.120;6.772;2023-04-19T03:12:39;346.65;;;121.38;;
5774;SDS011;2913;51.120;6.772;2023-04-19T03:15:06;372.90;;;121.70;;
5774;SDS011;2913;51.120;6.772;2023-04-19T03:17:32;386.23;;;124.80;;
5774;SDS011;2913;51.120;6.772;2023-04-19T03:19:58;358.88;;;122.05;;
5774;SDS011;2913;51.120;6.772;2023-04-19T03:22:23;334.95;;;117.40;;
5774;SDS011;2913;51.120;6.772;2023-04-19T03:24:51;252.25;;;99.25;;
5774;SDS011;2913;51.120;6.772;2023-04-19T03:27:17;232.32;;;93.85;;
5774;SDS011;2913;51.120;6.772;2023-04-19T03:29:45;568.47;;;170.63;;
5774;SDS011;2913;51.120;6.772;2023-04-19T03:32:13;630.72;;;191.60;;
5774;SDS011;2913;51.120;6.772;2023-04-19T03:34:38;611.03;;;185.73;;
5774;SDS011;2913;51.120;6.772;2023-04-19T03:37:06;606.70;;;184.40;;
5774;SDS011;2913;51.120;6.772;2023-04-19T03:39:32;627.65;;;187.02;;
5774;SDS011;2913;51.120;6.772;2023-04-19T03:41:58;631.75;;;190.65;;
5774;SDS011;2913;51.120;6.772;2023-04-19T03:44:26;672.25;;;204.35;;
5774;SDS011;2913;51.120;6.772;2023-04-19T03:46:52;614.15;;;185.57;;
5774;SDS011;2913;51.120;6.772;2023-04-19T03:49:17;649.25;;;199.40;;
5774;SDS011;2913;51.120;6.772;2023-04-19T03:51:43;798.08;;;247.25;;
5774;SDS011;2913;51.120;6.772;2023-04-19T03:54:09;833.00;;;256.30;;
5774;SDS011;2913;51.120;6.772;2023-04-19T03:56:35;847.78;;;257.88;;
5774;SDS011;2913;51.120;6.772;2023-04-19T03:59:01;716.92;;;218.73;;
5774;SDS011;2913;51.120;6.772;2023-04-19T04:01:26;714.33;;;216.10;;
5774;SDS011;2913;51.120;6.772;2023-04-19T04:03:52;647.78;;;195.25;;
5774;SDS011;2913;51.120;6.772;2023-04-19T04:06:18;678.00;;;203.90;;
5774;SDS011;2913;51.120;6.772;2023-04-19T04:08:43;653.85;;;198.52;;
5774;SDS011;2913;51.120;6.772;2023-04-19T04:11:10;733.85;;;222.65;;
5774;SDS011;2913;51.120;6.772;2023-04-19T04:13:35;763.55;;;229.57;;
5774;SDS011;2913;51.120;6.772;2023-04-19T04:16:01;731.45;;;219.30;;
5774;SDS011;2913;51.120;6.772;2023-04-19T04:18:27;727.28;;;222.57;;
5774;SDS011;2913;51.120;6.772;2023-04-19T04:20:53;730.17;;;220.75;;
5774;SDS011;2913;51.120;6.772;2023-04-19T04:23:23;642.45;;;191.48;;
5774;SDS011;2913;51.120;6.772;2023-04-19T04:25:58;691.03;;;207.10;;
5774;SDS011;2913;51.120;6.772;2023-04-19T04:28:25;720.60;;;214.07;;
5774;SDS011;2913;51.120;6.772;2023-04-19T04:30:54;702.35;;;210.77;;
5774;SDS011;2913;51.120;6.772;2023-04-19T04:33:23;816.95;;;248.50;;
5774;SDS011;2913;51.120;6.772;2023-04-19T04:35:51;779.88;;;233.63;;
5774;SDS011;2913;51.120;6.772;2023-04-19T04:38:24;676.67;;;201.55;;
5774;SDS011;2913;51.120;6.772;2023-04-19T04:40:52;703.88;;;211.13;;
5774;SDS011;2913;51.120;6.772;2023-04-19T04:43:22;730.63;;;220.27;;
5774;SDS011;2913;51.120;6.772;2023-04-19T04:45:49;739.60;;;223.15;;
5774;SDS011;2913;51.120;6.772;2023-04-19T04:48:19;639.25;;;189.85;;
5774;SDS011;2913;51.120;6.772;2023-04-19T04:50:45;650.83;;;192.90;;
5774;SDS011;2913;51.120;6.772;2023-04-19T04:53:12;659.47;;;195.35;;
5774;SDS011;2913;51.120;6.772;2023-04-19T04:55:38;840.58;;;251.52;;
5774;SDS011;2913;51.120;6.772;2023-04-19T04:58:04;876.53;;;263.33;;
5774;SDS011;2913;51.120;6.772;2023-04-19T05:00:30;877.58;;;262.48;;
5774;SDS011;2913;51.120;6.772;2023-04-19T05:03:01;718.97;;;213.85;;
5774;SDS011;2913;51.120;6.772;2023-04-19T05:05:28;651.88;;;191.38;;
5774;SDS011;2913;51.120;6.772;2023-04-19T05:07:54;688.50;;;205.32;;
5774;SDS011;2913;51.120;6.772;2023-04-19T05:10:19;652.60;;;191.88;;
5774;SDS011;2913;51.120;6.772;2023-04-19T05:12:45;632.15;;;184.82;;
5774;SDS011;2913;51.120;6.772;2023-04-19T05:15:11;600.38;;;173.90;;
5774;SDS011;2913;51.120;6.772;2023-04-19T05:17:36;659.67;;;194.98;;
5774;SDS011;2913;51.120;6.772;2023-04-19T05:20:07;577.88;;;165.23;;
5774;SDS011;2913;51.120;6.772;2023-04-19T05:22:32;721.80;;;213.40;;
5774;SDS011;2913;51.120;6.772;2023-04-19T05:24:58;1045.03;;;335.20;;
5774;SDS011;2913;51.120;6.772;2023-04-19T05:27:24;645.72;;;188.93;;
5774;SDS011;2913;51.120;6.772;2023-04-19T05:29:49;588.53;;;171.35;;
5774;SDS011;2913;51.120;6.772;2023-04-19T05:32:16;371.95;;;118.10;;
5774;SDS011;2913;51.120;6.772;2023-04-19T05:34:41;290.35;;;100.63;;
5774;SDS011;2913;51.120;6.772;2023-04-19T05:37:07;372.38;;;117.07;;
5774;SDS011;2913;51.120;6.772;2023-04-19T05:39:32;264.45;;;96.80;;
5774;SDS011;2913;51.120;6.772;2023-04-19T05:42:00;288.67;;;100.07;;
5774;SDS011;2913;51.120;6.772;2023-04-19T05:44:28;203.98;;;81.80;;
5774;SDS011;2913;51.120;6.772;2023-04-19T05:46:54;228.98;;;89.60;;
5774;SDS011;2913;51.120;6.772;2023-04-19T05:49:19;105.90;;;54.67;;
5774;SDS011;2913;51.120;6.772;2023-04-19T05:51:47;144.77;;;69.03;;
5774;SDS011;2913;51.120;6.772;2023-04-19T05:54:13;327.73;;;108.47;;
5774;SDS011;2913;51.120;6.772;2023-04-19T05:56:39;433.48;;;128.43;;
5774;SDS011;2913;51.120;6.772;2023-04-19T05:59:05;298.65;;;104.00;;
5774;SDS011;2913;51.120;6.772;2023-04-19T06:01:30;213.15;;;86.97;;
5774;SDS011;2913;51.120;6.772;2023-04-19T06:04:01;297.00;;;103.72;;
5774;SDS011;2913;51.120;6.772;2023-04-19T06:06:27;325.10;;;108.00;;
5774;SDS011;2913;51.120;6.772;2023-04-19T06:08:52;700.67;;;207.25;;
5774;SDS011;2913;51.120;6.772;2023-04-19T06:11:20;799.17;;;238.15;;
5774;SDS011;2913;51.120;6.772;2023-04-19T06:13:50;841.35;;;252.32;;
5774;SDS011;2913;51.120;6.772;2023-04-19T06:16:18;645.40;;;188.30;;
5774;SDS011;2913;51.120;6.772;2023-04-19T06:18:44;842.08;;;250.90;;
5774;SDS011;2913;51.120;6.772;2023-04-19T06:21:09;843.20;;;252.77;;
5774;SDS011;2913;51.120;6.772;2023-04-19T06:23:35;877.00;;;261.23;;
5774;SDS011;2913;51.120;6.772;2023-04-19T06:26:01;975.88;;;293.38;;
5774;SDS011;2913;51.120;6.772;2023-04-19T06:28:28;981.70;;;294.52;;
5774;SDS011;2913;51.120;6.772;2023-04-19T06:30:57;958.60;;;286.60;;
5774;SDS011;2913;51.120;6.772;2023-04-19T06:33:26;894.63;;;266.25;;
5774;SDS011;2913;51.120;6.772;2023-04-19T06:35:51;885.83;;;261.92;;
5774;SDS011;2913;51.120;6.772;2023-04-19T06:38:17;976.63;;;289.35;;
5774;SDS011;2913;51.120;6.772;2023-04-19T06:40:47;796.60;;;233.63;;
5774;SDS011;2913;51.120;6.772;2023-04-19T06:43:13;580.67;;;165.30;;
5774;SDS011;2913;51.120;6.772;2023-04-19T06:45:38;603.53;;;171.70;;
5774;SDS011;2913;51.120;6.772;2023-04-19T06:48:04;580.50;;;165.18;;
5774;SDS011;2913;51.120;6.772;2023-04-19T06:50:30;530.55;;;149.15;;
5774;SDS011;2913;51.120;6.772;2023-04-19T06:52:56;585.83;;;166.57;;
5774;SDS011;2913;51.120;6.772;2023-04-19T06:55:21;570.15;;;162.32;;
5774;SDS011;2913;51.120;6.772;2023-04-19T06:57:49;509.48;;;144.15;;
5774;SDS011;2913;51.120;6.772;2023-04-19T07:00:15;548.30;;;154.68;;
5774;SDS011;2913;51.120;6.772;2023-04-19T07:02:42;594.25;;;167.48;;
5774;SDS011;2913;51.120;6.772;2023-04-19T07:05:10;587.25;;;166.52;;
5774;SDS011;2913;51.120;6.772;2023-04-19T07:07:37;609.35;;;173.82;;
5774;SDS011;2913;51.120;6.772;2023-04-19T07:10:05;460.48;;;133.27;;
5774;SDS011;2913;51.120;6.772;2023-04-19T07:12:34;417.70;;;126.47;;
5774;SDS011;2913;51.120;6.772;2023-04-19T07:15:02;401.13;;;120.93;;
5774;SDS011;2913;51.120;6.772;2023-04-19T07:17:30;441.73;;;128.90;;
5774;SDS011;2913;51.120;6.772;2023-04-19T07:19:57;470.08;;;133.50;;
5774;SDS011;2913;51.120;6.772;2023-04-19T07:22:23;477.42;;;138.05;;
5774;SDS011;2913;51.120;6.772;2023-04-19T07:24:51;628.10;;;178.80;;
5774;SDS011;2913;51.120;6.772;2023-04-19T07:27:17;630.97;;;178.52;;
5774;SDS011;2913;51.120;6.772;2023-04-19T07:29:43;563.78;;;160.55;;
5774;SDS011;2913;51.120;6.772;2023-04-19T07:32:09;532.05;;;150.15;;
5774;SDS011;2913;51.120;6.772;2023-04-19T07:34:40;585.10;;;167.85;;
5774;SDS011;2913;51.120;6.772;2023-04-19T07:37:09;583.47;;;165.35;;
5774;SDS011;2913;51.120;6.772;2023-04-19T07:39:36;588.05;;;167.05;;
5774;SDS011;2913;51.120;6.772;2023-04-19T07:42:04;575.72;;;162.45;;
5774;SDS011;2913;51.120;6.772;2023-04-19T07:44:30;555.47;;;156.65;;
5774;SDS011;2913;51.120;6.772;2023-04-19T07:47:00;802.30;;;231.48;;
5774;SDS011;2913;51.120;6.772;2023-04-19T07:49:27;920.08;;;264.35;;
5774;SDS011;2913;51.120;6.772;2023-04-19T07:51:57;758.70;;;215.70;;
5774;SDS011;2913;51.120;6.772;2023-04-19T07:54:28;707.58;;;202.18;;
5774;SDS011;2913;51.120;6.772;2023-04-19T07:56:55;904.55;;;259.40;;
5774;SDS011;2913;51.120;6.772;2023-04-19T07:59:25;844.83;;;242.60;;
5774;SDS011;2913;51.120;6.772;2023-04-19T08:01:53;869.15;;;248.70;;
5774;SDS011;2913;51.120;6.772;2023-04-19T08:04:18;832.33;;;235.38;;
5774;SDS011;2913;51.120;6.772;2023-04-19T08:06:49;985.33;;;280.00;;
5774;SDS011;2913;51.120;6.772;2023-04-19T08:09:15;893.20;;;252.98;;
5774;SDS011;2913;51.120;6.772;2023-04-19T08:11:42;901.58;;;254.80;;
5774;SDS011;2913;51.120;6.772;2023-04-19T08:14:08;988.17;;;277.52;;
5774;SDS011;2913;51.120;6.772;2023-04-19T08:16:34;903.13;;;254.02;;
5774;SDS011;2913;51.120;6.772;2023-04-19T08:19:01;890.15;;;249.07;;
5774;SDS011;2913;51.120;6.772;2023-04-19T08:21:27;950.13;;;267.23;;
5774;SDS011;2913;51.120;6.772;2023-04-19T08:23:55;1003.45;;;280.45;;
5774;SDS011;2913;51.120;6.772;2023-04-19T08:26:21;1083.45;;;303.60;;
5774;SDS011;2913;51.120;6.772;2023-04-19T08:28:46;998.40;;;279.35;;
5774;SDS011;2913;51.120;6.772;2023-04-19T08:31:13;970.00;;;271.65;;
5774;SDS011;2913;51.120;6.772;2023-04-19T08:33:41;980.38;;;273.92;;
5774;SDS011;2913;51.120;6.772;2023-04-19T08:36:07;962.28;;;269.42;;
5774;SDS011;2913;51.120;6.772;2023-04-19T08:38:33;987.50;;;276.27;;
5774;SDS011;2913;51.120;6.772;2023-04-19T08:40:58;966.28;;;269.98;;
5774;SDS011;2913;51.120;6.772;2023-04-19T08:43:25;999.00;;;276.70;;
5774;SDS011;2913;51.120;6.772;2023-04-19T08:45:59;976.57;;;272.27;;
5774;SDS011;2913;51.120;6.772;2023-04-19T08:48:26;1009.60;;;281.02;;
5774;SDS011;2913;51.120;6.772;2023-04-19T08:50:53;971.15;;;271.67;;
5774;SDS011;2913;51.120;6.772;2023-04-19T08:53:24;989.58;;;275.70;;
5774;SDS011;2913;51.120;6.772;2023-04-19T08:55:53;947.22;;;265.80;;
5774;SDS011;2913;51.120;6.772;2023-04-19T08:58:22;973.75;;;271.15;;
5774;SDS011;2913;51.120;6.772;2023-04-19T09:00:54;959.05;;;268.35;;
5774;SDS011;2913;51.120;6.772;2023-04-19T09:03:20;929.58;;;259.38;;
5774;SDS011;2913;51.120;6.772;2023-04-19T09:05:48;917.78;;;255.35;;
5774;SDS011;2913;51.120;6.772;2023-04-19T09:08:23;946.67;;;264.13;;
5774;SDS011;2913;51.120;6.772;2023-04-19T09:10:57;955.17;;;267.13;;
5774;SDS011;2913;51.120;6.772;2023-04-19T09:13:26;882.55;;;244.50;;
5774;SDS011;2913;51.120;6.772;2023-04-19T09:15:55;892.67;;;249.32;;
5774;SDS011;2913;51.120;6.772;2023-04-19T09:18:22;910.63;;;253.55;;
5774;SDS011;2913;51.120;6.772;2023-04-19T09:20:49;938.22;;;261.92;;
5774;SDS011;2913;51.120;6.772;2023-04-19T09:23:24;926.40;;;258.20;;
5774;SDS011;2913;51.120;6.772;2023-04-19T09:25:51;941.55;;;260.77;;
5774;SDS011;2913;51.120;6.772;2023-04-19T09:28:21;950.50;;;262.30;;
5774;SDS011;2913;51.120;6.772;2023-04-19T09:30:47;902.55;;;250.27;;
5774;SDS011;2913;51.120;6.772;2023-04-19T09:33:12;819.67;;;226.98;;
5774;SDS011;2913;51.120;6.772;2023-04-19T09:35:49;775.80;;;217.25;;
5774;SDS011;2913;51.120;6.772;2023-04-19T09:38:17;728.53;;;202.85;;
5774;SDS011;2913;51.120;6.772;2023-04-19T09:40:42;788.50;;;219.35;;
5774;SDS011;2913;51.120;6.772;2023-04-19T09:43:11;795.55;;;221.52;;
5774;SDS011;2913;51.120;6.772;2023-04-19T09:45:40;787.53;;;219.57;;
5774;SDS011;2913;51.120;6.772;2023-04-19T09:48:07;838.05;;;233.23;;
5774;SDS011;2913;51.120;6.772;2023-04-19T09:50:33;762.75;;;212.18;;
5774;SDS011;2913;51.120;6.772;2023-04-19T09:53:00;855.38;;;237.20;;
5774;SDS011;2913;51.120;6.772;2023-04-19T09:55:27;838.65;;;232.57;;
5774;SDS011;2913;51.120;6.772;2023-04-19T09:57:52;899.15;;;248.60;;
5774;SDS011;2913;51.120;6.772;2023-04-19T10:00:21;902.38;;;250.65;;
5774;SDS011;2913;51.120;6.772;2023-04-19T10:02:54;855.50;;;237.07;;
5774;SDS011;2913;51.120;6.772;2023-04-19T10:05:22;873.40;;;240.75;;
5774;SDS011;2913;51.120;6.772;2023-04-19T10:07:51;893.40;;;248.57;;
5774;SDS011;2913;51.120;6.772;2023-04-19T10:10:17;905.38;;;249.55;;
5774;SDS011;2913;51.120;6.772;2023-04-19T10:12:45;747.17;;;206.90;;
5774;SDS011;2913;51.120;6.772;2023-04-19T10:15:13;755.33;;;210.25;;
5774;SDS011;2913;51.120;6.772;2023-04-19T10:17:43;963.17;;;264.95;;
5774;SDS011;2913;51.120;6.772;2023-04-19T10:20:09;931.55;;;255.85;;
5774;SDS011;2913;51.120;6.772;2023-04-19T10:22:41;916.53;;;251.82;;
5774;SDS011;2913;51.120;6.772;2023-04-19T10:25:14;951.55;;;261.60;;
5774;SDS011;2913;51.120;6.772;2023-04-19T10:27:42;951.20;;;260.67;;
5774;SDS011;2913;51.120;6.772;2023-04-19T10:30:19;826.95;;;228.05;;
5774;SDS011;2913;51.120;6.772;2023-04-19T10:33:00;685.25;;;188.32;;
5774;SDS011;2913;51.120;6.772;2023-04-19T10:35:32;701.08;;;194.00;;
5774;SDS011;2913;51.120;6.772;2023-04-19T10:40:52;722.65;;;200.35;;
5774;SDS011;2913;51.120;6.772;2023-04-19T10:43:29;807.33;;;222.50;;
5774;SDS011;2913;51.120;6.772;2023-04-19T10:46:04;894.40;;;245.77;;
5774;SDS011;2913;51.120;6.772;2023-04-19T10:48:30;1071.80;;;293.15;;
5774;SDS011;2913;51.120;6.772;2023-04-19T11:12:00;1225.38;;;331.40;;
5774;SDS011;2913;51.120;6.772;2023-04-19T11:14:36;1133.53;;;304.30;;
5774;SDS011;2913;51.120;6.772;2023-04-19T11:20:04;1059.65;;;286.80;;
5774;SDS011;2913;51.120;6.772;2023-04-19T11:22:35;1093.80;;;295.23;;
5774;SDS011;2913;51.120;6.772;2023-04-19T11:27:32;1157.25;;;309.73;;
5774;SDS011;2913;51.120;6.772;2023-04-19T11:30:07;1217.30;;;325.17;;
5774;SDS011;2913;51.120;6.772;2023-04-19T11:32:43;1282.07;;;343.65;;
5774;SDS011;2913;51.120;6.772;2023-04-19T11:35:19;1324.18;;;353.40;;
5774;SDS011;2913;51.120;6.772;2023-04-19T11:37:45;1316.95;;;351.17;;
5774;SDS011;2913;51.120;6.772;2023-04-19T11:40:22;1347.00;;;359.60;;
5774;SDS011;2913;51.120;6.772;2023-04-19T11:42:54;1296.35;;;345.35;;
5774;SDS011;2913;51.120;6.772;2023-04-19T11:45:28;1280.57;;;340.83;;
5774;SDS011;2913;51.120;6.772;2023-04-19T11:47:55;1206.43;;;323.13;;
5774;SDS011;2913;51.120;6.772;2023-04-19T11:50:30;1243.45;;;331.33;;
5774;SDS011;2913;51.120;6.772;2023-04-19T11:55:56;1364.05;;;362.30;;
5774;SDS011;2913;51.120;6.772;2023-04-19T11:58:29;1296.10;;;343.95;;
5774;SDS011;2913;51.120;6.772;2023-04-19T12:01:01;1315.88;;;348.20;;
5774;SDS011;2913;51.120;6.772;2023-04-19T12:03:30;1491.82;;;402.38;;
5774;SDS011;2913;51.120;6.772;2023-04-19T12:05:57;1496.85;;;402.00;;
5774;SDS011;2913;51.120;6.772;2023-04-19T12:08:34;1535.22;;;415.00;;
5774;SDS011;2913;51.120;6.772;2023-04-19T12:11:01;1457.38;;;386.77;;
5774;SDS011;2913;51.120;6.772;2023-04-19T12:13:28;1528.50;;;410.92;;
5774;SDS011;2913;51.120;6.772;2023-04-19T12:15:57;1580.07;;;429.17;;
5774;SDS011;2913;51.120;6.772;2023-04-19T12:18:29;1588.23;;;427.20;;
5774;SDS011;2913;51.120;6.772;2023-04-19T12:21:29;1438.05;;;379.17;;
5774;SDS011;2913;51.120;6.772;2023-04-19T12:24:00;1410.25;;;370.30;;
5774;SDS011;2913;51.120;6.772;2023-04-19T12:26:26;1488.18;;;393.20;;
5774;SDS011;2913;51.120;6.772;2023-04-19T12:28:55;1528.88;;;408.85;;
5774;SDS011;2913;51.120;6.772;2023-04-19T12:31:22;1546.38;;;414.17;;
5774;SDS011;2913;51.120;6.772;2023-04-19T12:33:50;1571.60;;;422.73;;
5774;SDS011;2913;51.120;6.772;2023-04-19T12:36:16;1567.63;;;419.40;;
5774;SDS011;2913;51.120;6.772;2023-04-19T12:38:43;1599.68;;;430.30;;
5774;SDS011;2913;51.120;6.772;2023-04-19T12:41:09;1576.53;;;422.20;;
5774;SDS011;2913;51.120;6.772;2023-04-19T12:43:35;1535.00;;;407.13;;
5774;SDS011;2913;51.120;6.772;2023-04-19T12:46:03;1565.32;;;414.60;;
5774;SDS011;2913;51.120;6.772;2023-04-19T12:48:29;1621.35;;;434.42;;
5774;SDS011;2913;51.120;6.772;2023-04-19T12:50:57;1670.72;;;450.88;;
5774;SDS011;2913;51.120;6.772;2023-04-19T12:53:23;1764.03;;;485.38;;
5774;SDS011;2913;51.120;6.772;2023-04-19T12:55:49;1831.15;;;503.08;;
5774;SDS011;2913;51.120;6.772;2023-04-19T12:58:15;1859.40;;;506.67;;
5774;SDS011;2913;51.120;6.772;2023-04-19T13:00:44;1960.60;;;544.42;;
5774;SDS011;2913;51.120;6.772;2023-04-19T13:03:09;1999.90;;;564.00;;
5774;SDS011;2913;51.120;6.772;2023-04-19T13:05:36;1999.90;;;554.13;;
5774;SDS011;2913;51.120;6.772;2023-04-19T13:08:02;1983.80;;;535.28;;
5774;SDS011;2913;51.120;6.772;2023-04-19T13:10:28;1647.13;;;428.15;;
5774;SDS011;2913;51.120;6.772;2023-04-19T13:12:53;1657.22;;;431.55;;
5774;SDS011;2913;51.120;6.772;2023-04-19T13:15:20;1681.80;;;440.77;;
5774;SDS011;2913;51.120;6.772;2023-04-19T13:17:46;1750.60;;;459.13;;
5774;SDS011;2913;51.120;6.772;2023-04-19T13:20:11;1804.80;;;478.05;;
5774;SDS011;2913;51.120;6.772;2023-04-19T13:22:37;1752.05;;;461.95;;
5774;SDS011;2913;51.120;6.772;2023-04-19T13:25:03;1718.13;;;448.77;;
5774;SDS011;2913;51.120;6.772;2023-04-19T13:27:33;1829.50;;;487.60;;
5774;SDS011;2913;51.120;6.772;2023-04-19T13:29:58;1870.35;;;495.73;;
5774;SDS011;2913;51.120;6.772;2023-04-19T13:32:27;1952.57;;;522.88;;
5774;SDS011;2913;51.120;6.772;2023-04-19T13:34:53;1897.32;;;502.92;;
5774;SDS011;2913;51.120;6.772;2023-04-19T13:37:18;1892.53;;;498.05;;
5774;SDS011;2913;51.120;6.772;2023-04-19T13:39:44;1886.82;;;498.73;;
5774;SDS011;2913;51.120;6.772;2023-04-19T13:42:14;1948.22;;;515.67;;
5774;SDS011;2913;51.120;6.772;2023-04-19T13:44:40;1955.78;;;518.45;;
5774;SDS011;2913;51.120;6.772;2023-04-19T13:47:06;1999.90;;;540.45;;
5774;SDS011;2913;51.120;6.772;2023-04-19T13:49:31;1999.80;;;533.05;;
5774;SDS011;2913;51.120;6.772;2023-04-19T13:51:57;1999.90;;;550.08;;
5774;SDS011;2913;51.120;6.772;2023-04-19T13:54:22;1999.90;;;581.88;;
5774;SDS011;2913;51.120;6.772;2023-04-19T13:56:50;1999.90;;;592.45;;
5774;SDS011;2913;51.120;6.772;2023-04-19T13:59:16;1999.90;;;606.65;;
5774;SDS011;2913;51.120;6.772;2023-04-19T14:01:44;1999.90;;;608.60;;
5774;SDS011;2913;51.120;6.772;2023-04-19T14:04:10;1999.90;;;604.97;;
5774;SDS011;2913;51.120;6.772;2023-04-19T14:06:38;1999.90;;;602.75;;
5774;SDS011;2913;51.120;6.772;2023-04-19T14:09:04;1999.90;;;598.17;;
5774;SDS011;2913;51.120;6.772;2023-04-19T14:11:31;1999.90;;;611.40;;
5774;SDS011;2913;51.120;6.772;2023-04-19T14:14:04;1999.90;;;622.30;;
5774;SDS011;2913;51.120;6.772;2023-04-19T14:16:30;1999.90;;;637.08;;
5774;SDS011;2913;51.120;6.772;2023-04-19T14:18:58;1999.90;;;647.00;;
5774;SDS011;2913;51.120;6.772;2023-04-19T14:21:26;1999.90;;;648.50;;
5774;SDS011;2913;51.120;6.772;2023-04-19T14:23:54;1999.90;;;653.40;;
5774;SDS011;2913;51.120;6.772;2023-04-19T14:26:20;1999.90;;;658.15;;
5774;SDS011;2913;51.120;6.772;2023-04-19T14:28:46;1999.90;;;656.15;;
5774;SDS011;2913;51.120;6.772;2023-04-19T14:31:11;1999.90;;;648.97;;
5774;SDS011;2913;51.120;6.772;2023-04-19T14:33:37;1999.90;;;652.83;;
5774;SDS011;2913;51.120;6.772;2023-04-19T14:36:03;1999.90;;;669.25;;
5774;SDS011;2913;51.120;6.772;2023-04-19T14:43:22;1999.90;;;659.33;;
5774;SDS011;2913;51.120;6.772;2023-04-19T14:45:47;1999.90;;;639.33;;
5774;SDS011;2913;51.120;6.772;2023-04-19T14:48:16;1999.90;;;619.85;;
5774;SDS011;2913;51.120;6.772;2023-04-19T14:50:44;1999.90;;;637.73;;
5774;SDS011;2913;51.120;6.772;2023-04-19T14:53:15;1999.90;;;654.70;;
5774;SDS011;2913;51.120;6.772;2023-04-19T14:55:40;1999.90;;;646.53;;
5774;SDS011;2913;51.120;6.772;2023-04-19T15:00:31;1999.90;;;681.60;;